createdAt,value
2023-03-17T00:00:17.978Z,4.75
2023-03-17T00:01:20.965Z,4.43
2023-03-17T00:02:23.828Z,5.22
2023-03-17T00:03:29.409Z,3.67
2023-03-17T00:04:32.998Z,4.85
2023-03-17T00:05:36.668Z,4.13
2023-03-17T00:06:40.436Z,5.68
2023-03-17T00:07:44.059Z,5.03
2023-03-17T00:08:47.233Z,3.47
2023-03-17T00:09:49.561Z,6.10
2023-03-17T00:10:52.344Z,4.90
2023-03-17T00:11:54.720Z,3.75
2023-03-17T00:12:57.195Z,6.05
2023-03-17T00:13:59.527Z,3.65
2023-03-17T00:15:02.245Z,6.57
2023-03-17T00:16:10.148Z,4.60
2023-03-17T00:17:14.637Z,3.90
2023-03-17T00:18:19.179Z,4.85
2023-03-17T00:19:25.575Z,4.00
2023-03-17T00:20:32.543Z,5.15
2023-03-17T00:21:35.982Z,6.30
2023-03-17T00:22:38.410Z,3.22
2023-03-17T00:23:41.451Z,4.70
2023-03-17T00:24:43.828Z,3.05
2023-03-17T00:25:50.436Z,3.08
2023-03-17T00:26:53.188Z,6.03
2023-03-17T00:27:58.237Z,4.80
2023-03-17T00:29:02.626Z,4.22
2023-03-17T00:30:09.024Z,2.78
2023-03-17T00:31:21.253Z,4.38
2023-03-17T00:32:23.669Z,3.13
2023-03-17T00:33:30.829Z,4.68
2023-03-17T00:34:34.315Z,3.47
2023-03-17T00:35:37.404Z,2.42
2023-03-17T00:36:39.858Z,3.90
2023-03-17T00:37:42.315Z,3.33
2023-03-17T00:38:45.910Z,3.60
2023-03-17T00:39:49.282Z,2.45
2023-03-17T00:40:51.980Z,7.07
2023-03-17T00:41:58.001Z,2.95
2023-03-17T00:43:00.551Z,3.05
2023-03-17T00:44:03.456Z,3.20
2023-03-17T00:45:06.346Z,2.88
2023-03-17T00:46:38.028Z,2.28
2023-03-17T00:47:40.965Z,3.90
2023-03-17T00:48:45.367Z,4.75
2023-03-17T00:49:48.196Z,4.22
2023-03-17T00:50:51.052Z,2.22
2023-03-17T00:51:54.110Z,2.75
2023-03-17T00:52:58.050Z,3.80
2023-03-17T00:54:00.626Z,2.60
2023-03-17T00:55:03.559Z,3.60
2023-03-17T00:56:15.883Z,2.58
2023-03-17T00:57:20.432Z,2.85
2023-03-17T00:58:30.353Z,4.30
2023-03-17T00:59:42.259Z,3.17
2023-03-17T01:00:47.410Z,2.58
2023-03-17T01:01:49.879Z,2.90
2023-03-17T01:02:54.548Z,2.28
2023-03-17T01:03:57.475Z,2.88
2023-03-17T01:05:06.325Z,2.72
2023-03-17T01:06:12.731Z,2.90
2023-03-17T01:07:15.397Z,2.95
2023-03-17T01:08:17.985Z,3.75
2023-03-17T01:09:25.818Z,3.85
2023-03-17T01:10:29.337Z,5.43
2023-03-17T01:11:32.043Z,3.08
2023-03-17T01:12:34.604Z,2.20
2023-03-17T01:13:37.084Z,3.15
2023-03-17T01:14:40.748Z,4.72
2023-03-17T01:15:46.261Z,3.97
2023-03-17T01:16:48.789Z,7.22
2023-03-17T01:17:51.840Z,2.25
2023-03-17T01:18:54.585Z,2.47
2023-03-17T01:19:57.781Z,2.92
2023-03-17T01:21:00.130Z,3.80
2023-03-17T01:22:03.085Z,3.42
2023-03-17T01:23:06.109Z,2.72
2023-03-17T01:24:09.549Z,2.47
2023-03-17T01:25:12.281Z,2.72
2023-03-17T01:26:14.881Z,2.80
2023-03-17T01:27:19.140Z,2.78
2023-03-17T01:28:21.725Z,2.25
2023-03-17T01:29:24.036Z,2.33
2023-03-17T01:30:32.174Z,5.30
2023-03-17T01:31:35.125Z,2.33
2023-03-17T01:32:37.700Z,3.08
2023-03-17T01:33:40.615Z,3.28
2023-03-17T01:34:42.994Z,2.33
2023-03-17T01:35:48.216Z,2.83
2023-03-17T01:36:50.639Z,3.95
2023-03-17T01:37:53.446Z,3.03
2023-03-17T01:38:55.976Z,2.75
2023-03-17T01:39:58.293Z,3.78
2023-03-17T01:41:01.281Z,2.50
2023-03-17T01:42:04.180Z,3.15
2023-03-17T01:43:06.575Z,1.63
2023-03-17T01:44:16.669Z,2.33
2023-03-17T01:45:57.546Z,3.53
2023-03-17T01:47:01.029Z,2.53
2023-03-17T01:48:03.622Z,3.00
2023-03-17T01:49:30.224Z,2.53
2023-03-17T01:50:32.882Z,2.00
2023-03-17T01:51:57.430Z,1.92
2023-03-17T01:52:59.866Z,5.97
2023-03-17T01:54:06.786Z,2.22
2023-03-17T01:55:17.072Z,2.45
2023-03-17T01:56:20.185Z,1.90
2023-03-17T01:57:33.315Z,3.95
2023-03-17T01:58:35.920Z,2.25
2023-03-17T01:59:43.811Z,2.42
2023-03-17T02:00:46.494Z,3.40
2023-03-17T02:01:52.711Z,4.88
2023-03-17T02:02:56.674Z,5.55
2023-03-17T02:04:00.984Z,3.50
2023-03-17T02:05:10.814Z,2.08
2023-03-17T02:06:13.283Z,6.13
2023-03-17T02:07:15.766Z,1.92
2023-03-17T02:08:18.764Z,2.70
2023-03-17T02:09:21.131Z,2.85
2023-03-17T02:10:26.208Z,2.28
2023-03-17T02:11:29.253Z,3.58
2023-03-17T02:12:31.756Z,2.72
2023-03-17T02:13:34.892Z,3.15
2023-03-17T02:14:37.427Z,3.80
2023-03-17T02:15:41.653Z,3.10
2023-03-17T02:16:45.152Z,2.70
2023-03-17T02:17:47.566Z,2.15
2023-03-17T02:18:49.969Z,1.98
2023-03-17T02:19:52.402Z,2.45
2023-03-17T02:20:57.580Z,2.55
2023-03-17T02:22:00.772Z,3.00
2023-03-17T02:23:04.658Z,3.45
2023-03-17T02:24:13.519Z,1.73
2023-03-17T02:25:17.421Z,1.73
2023-03-17T02:26:21.747Z,2.63
2023-03-17T02:27:31.323Z,2.22
2023-03-17T02:28:35.302Z,1.88
2023-03-17T02:29:38.079Z,2.50
2023-03-17T02:30:40.578Z,2.30
2023-03-17T02:31:44.588Z,1.67
2023-03-17T02:32:47.880Z,1.90
2023-03-17T02:33:50.324Z,2.58
2023-03-17T02:34:52.947Z,2.58
2023-03-17T02:35:56.386Z,2.30
2023-03-17T02:36:59.151Z,3.33
2023-03-17T02:38:01.520Z,2.47
2023-03-17T02:39:05.536Z,1.95
2023-03-17T02:40:09.354Z,2.95
2023-03-17T02:41:12.103Z,2.60
2023-03-17T02:42:14.736Z,1.80
2023-03-17T02:43:17.504Z,1.95
2023-03-17T02:44:19.941Z,2.33
2023-03-17T02:45:23.274Z,2.10
2023-03-17T02:46:26.146Z,2.95
2023-03-17T02:47:28.557Z,2.90
2023-03-17T02:48:31.902Z,2.55
2023-03-17T02:49:36.046Z,2.20
2023-03-17T02:50:38.382Z,4.28
2023-03-17T02:51:40.747Z,2.42
2023-03-17T02:52:43.022Z,2.30
2023-03-17T02:53:45.495Z,2.35
2023-03-17T02:54:47.845Z,1.48
2023-03-17T02:55:50.402Z,11.75
2023-03-17T02:56:52.758Z,92.15
2023-03-17T02:57:55.164Z,62.50
2023-03-17T02:58:57.792Z,86.07
2023-03-17T03:00:00.161Z,47.47
2023-03-17T03:01:03.433Z,28.15
2023-03-17T03:02:05.821Z,18.45
2023-03-17T03:03:08.363Z,16.10
2023-03-17T03:04:10.638Z,13.38
2023-03-17T03:05:12.985Z,15.05
2023-03-17T03:06:15.385Z,12.38
2023-03-17T03:07:18.026Z,11.80
2023-03-17T03:08:20.683Z,11.98
2023-03-17T03:09:23.141Z,9.68
2023-03-17T03:10:25.806Z,9.57
2023-03-17T03:11:29.206Z,11.30
2023-03-17T03:12:31.706Z,10.40
2023-03-17T03:13:34.081Z,7.82
2023-03-17T03:14:36.693Z,10.32
2023-03-17T03:15:41.642Z,7.38
2023-03-17T03:16:44.340Z,10.35
2023-03-17T03:17:46.746Z,7.85
2023-03-17T03:18:49.113Z,7.00
2023-03-17T03:19:51.499Z,7.53
2023-03-17T03:20:54.025Z,9.45
2023-03-17T03:21:56.348Z,5.45
2023-03-17T03:22:58.635Z,7.05
2023-03-17T03:24:01.076Z,7.10
2023-03-17T03:25:03.530Z,7.03
2023-03-17T03:26:06.142Z,8.57
2023-03-17T03:27:08.600Z,6.32
2023-03-17T03:28:11.255Z,5.90
2023-03-17T03:29:13.665Z,5.70
2023-03-17T03:30:16.056Z,7.60
2023-03-17T03:31:18.393Z,6.53
2023-03-17T03:32:20.699Z,4.97
2023-03-17T03:33:23.227Z,6.10
2023-03-17T03:34:26.062Z,5.65
2023-03-17T03:35:29.501Z,4.53
2023-03-17T03:36:32.226Z,3.97
2023-03-17T03:37:34.483Z,4.47
2023-03-17T03:38:36.797Z,6.05
2023-03-17T03:39:39.087Z,3.78
2023-03-17T03:40:41.518Z,6.80
2023-03-17T03:41:43.968Z,4.93
2023-03-17T03:42:46.793Z,5.53
2023-03-17T03:43:49.096Z,4.20
2023-03-17T03:44:51.414Z,3.78
2023-03-17T03:45:54.601Z,4.45
2023-03-17T03:46:56.984Z,4.82
2023-03-17T03:47:59.669Z,4.45
2023-03-17T03:49:02.134Z,3.10
2023-03-17T03:50:05.050Z,3.25
2023-03-17T03:51:07.435Z,3.85
2023-03-17T03:52:09.925Z,128.23
2023-03-17T03:53:12.373Z,148.85
2023-03-17T03:54:14.785Z,117.60
2023-03-17T03:55:17.254Z,132.77
2023-03-17T03:56:19.664Z,92.80
2023-03-17T03:57:21.937Z,85.35
2023-03-17T03:58:24.475Z,65.72
2023-03-17T03:59:27.473Z,63.40
2023-03-17T04:00:30.099Z,50.30
2023-03-17T04:01:32.607Z,50.30
2023-03-17T04:02:35.187Z,43.53
2023-03-17T04:03:38.227Z,40.83
2023-03-17T04:04:40.631Z,35.97
2023-03-17T04:05:43.195Z,30.40
2023-03-17T04:06:45.552Z,29.58
2023-03-17T04:07:47.938Z,27.13
2023-03-17T04:08:50.396Z,24.20
2023-03-17T04:09:52.763Z,26.92
2023-03-17T04:10:55.371Z,22.13
2023-03-17T04:11:57.930Z,21.55
2023-03-17T04:13:00.518Z,20.15
2023-03-17T04:14:03.284Z,20.15
2023-03-17T04:15:09.161Z,24.35
2023-03-17T04:16:11.700Z,20.08
2023-03-17T04:17:14.699Z,20.02
2023-03-17T04:18:17.009Z,21.40
2023-03-17T04:19:20.046Z,17.15
2023-03-17T04:20:22.445Z,15.73
2023-03-17T04:21:24.788Z,17.88
2023-03-17T04:22:27.700Z,13.57
2023-03-17T04:23:31.438Z,28.95
2023-03-17T04:24:34.955Z,10.82
2023-03-17T04:25:38.055Z,11.20
2023-03-17T04:26:41.344Z,10.88
2023-03-17T04:27:43.893Z,12.20
2023-03-17T04:28:46.282Z,11.57
2023-03-17T04:29:49.523Z,12.80
2023-03-17T04:30:52.152Z,13.30
2023-03-17T04:31:54.579Z,17.02
2023-03-17T04:32:57.178Z,14.52
2023-03-17T04:33:59.532Z,15.43
2023-03-17T04:35:02.065Z,14.93
2023-03-17T04:36:05.185Z,15.55
2023-03-17T04:37:10.092Z,13.90
2023-03-17T04:38:13.282Z,16.20
2023-03-17T04:39:16.585Z,13.68
2023-03-17T04:40:19.672Z,13.85
2023-03-17T04:41:22.237Z,15.25
2023-03-17T04:42:24.558Z,14.15
2023-03-17T04:43:27.087Z,12.60
2023-03-17T04:44:29.487Z,15.35
2023-03-17T04:45:31.897Z,15.18
2023-03-17T04:46:34.819Z,14.93
2023-03-17T04:47:37.203Z,8.57
2023-03-17T04:48:39.906Z,6.82
2023-03-17T04:49:42.338Z,6.15
2023-03-17T04:50:47.723Z,7.53
2023-03-17T04:51:50.006Z,8.80
2023-03-17T04:52:52.303Z,8.45
2023-03-17T04:53:54.782Z,9.07
2023-03-17T04:54:57.530Z,8.63
2023-03-17T04:55:59.848Z,10.60
2023-03-17T04:57:02.172Z,14.60
2023-03-17T04:58:04.498Z,12.07
2023-03-17T04:59:06.729Z,11.68
2023-03-17T05:00:09.823Z,11.65
2023-03-17T05:01:12.323Z,14.93
2023-03-17T05:02:14.781Z,11.63
2023-03-17T05:03:26.803Z,12.15
2023-03-17T05:04:31.999Z,14.45
2023-03-17T05:05:35.027Z,10.70
2023-03-17T05:06:37.352Z,11.63
2023-03-17T05:07:40.203Z,13.50
2023-03-17T05:08:46.023Z,17.75
2023-03-17T05:09:48.557Z,11.98
2023-03-17T05:10:51.523Z,11.05
2023-03-17T05:11:53.941Z,16.75
2023-03-17T05:12:56.218Z,12.18
2023-03-17T05:13:58.528Z,14.27
2023-03-17T05:15:00.882Z,12.82
2023-03-17T05:16:03.808Z,9.80
2023-03-17T05:17:06.302Z,36.97
2023-03-17T05:18:08.863Z,74.10
2023-03-17T05:19:11.598Z,65.72
2023-03-17T05:20:14.290Z,164.02
2023-03-17T05:21:17.299Z,129.05
2023-03-17T05:22:19.543Z,93.45
2023-03-17T05:23:22.938Z,50.92
2023-03-17T05:24:25.610Z,29.13
2023-03-17T05:25:28.107Z,22.92
2023-03-17T05:26:31.292Z,15.88
2023-03-17T05:27:33.670Z,195.45
2023-03-17T05:28:36.397Z,107.78
2023-03-17T05:29:39.167Z,86.30
2023-03-17T05:30:43.371Z,77.72
2023-03-17T05:31:46.032Z,82.72
2023-03-17T05:32:48.342Z,77.97
2023-03-17T05:33:51.082Z,66.10
2023-03-17T05:34:53.407Z,58.58
2023-03-17T05:35:56.120Z,52.92
2023-03-17T05:36:58.507Z,49.50
2023-03-17T05:38:00.940Z,43.28
2023-03-17T05:39:05.120Z,41.53
2023-03-17T05:40:08.301Z,34.13
2023-03-17T05:41:11.087Z,33.60
2023-03-17T05:42:13.809Z,35.28
2023-03-17T05:43:16.075Z,31.40
2023-03-17T05:44:18.386Z,35.80
2023-03-17T05:45:20.667Z,31.17
2023-03-17T05:46:23.195Z,24.77
2023-03-17T05:47:25.610Z,25.60
2023-03-17T05:48:28.060Z,23.70
2023-03-17T05:49:30.897Z,21.13
2023-03-17T05:50:33.342Z,25.63
2023-03-17T05:51:37.041Z,21.23
2023-03-17T05:52:40.151Z,37.58
2023-03-17T05:53:43.273Z,59.78
2023-03-17T05:54:48.835Z,45.33
2023-03-17T05:55:52.355Z,44.60
2023-03-17T05:56:54.753Z,38.38
2023-03-17T05:57:57.103Z,34.13
2023-03-17T05:59:02.700Z,36.88
2023-03-17T06:00:05.452Z,29.10
2023-03-17T06:01:08.084Z,28.42
2023-03-17T06:02:11.426Z,33.08
2023-03-17T06:03:14.156Z,31.80
2023-03-17T06:04:16.484Z,27.92
2023-03-17T06:05:18.826Z,31.33
2023-03-17T06:06:21.180Z,26.33
2023-03-17T06:07:23.494Z,28.20
2023-03-17T06:08:25.949Z,29.23
2023-03-17T06:09:28.251Z,26.27
2023-03-17T06:10:31.278Z,27.48
2023-03-17T06:11:33.666Z,26.60
2023-03-17T06:12:35.984Z,27.02
2023-03-17T06:13:38.369Z,27.38
2023-03-17T06:14:40.682Z,26.35
2023-03-17T06:15:43.683Z,25.80
2023-03-17T06:16:46.154Z,28.42
2023-03-17T06:17:48.522Z,26.60
2023-03-17T06:18:51.072Z,26.20
2023-03-17T06:19:53.398Z,28.55
2023-03-17T06:20:55.728Z,24.42
2023-03-17T06:21:58.055Z,24.25
2023-03-17T06:23:04.860Z,21.58
2023-03-17T06:24:08.069Z,21.08
2023-03-17T06:25:12.671Z,21.15
2023-03-17T06:26:15.022Z,23.98
2023-03-17T06:27:17.313Z,27.90
2023-03-17T06:28:19.736Z,24.20
2023-03-17T06:29:27.637Z,22.77
2023-03-17T06:30:34.977Z,26.42
2023-03-17T06:31:37.884Z,22.85
2023-03-17T06:32:40.586Z,29.38
2023-03-17T06:33:43.751Z,19.92
2023-03-17T06:34:46.259Z,23.73
2023-03-17T06:35:48.722Z,21.80
2023-03-17T06:36:51.475Z,23.10
2023-03-17T06:37:54.673Z,20.67
2023-03-17T06:38:57.828Z,17.73
2023-03-17T06:40:01.215Z,19.75
2023-03-17T06:41:03.660Z,21.15
2023-03-17T06:42:06.434Z,26.05
2023-03-17T06:43:09.337Z,19.17
2023-03-17T06:44:11.819Z,21.60
2023-03-17T06:45:14.396Z,18.77
2023-03-17T06:46:16.974Z,20.67
2023-03-17T06:47:20.209Z,22.08
2023-03-17T06:48:23.552Z,20.80
2023-03-17T06:49:26.381Z,21.25
2023-03-17T06:50:28.892Z,20.48
2023-03-17T06:51:32.457Z,20.90
2023-03-17T06:52:34.969Z,20.55
2023-03-17T06:53:37.396Z,18.80
2023-03-17T06:54:41.221Z,19.00
2023-03-17T06:55:43.788Z,17.90
2023-03-17T06:56:46.121Z,17.98
2023-03-17T06:57:50.957Z,16.95
2023-03-17T06:58:53.943Z,15.45
2023-03-17T06:59:56.376Z,16.63
2023-03-17T07:00:59.745Z,19.15
2023-03-17T07:02:02.429Z,18.48
2023-03-17T07:03:05.627Z,18.48
2023-03-17T07:04:08.052Z,18.85
2023-03-17T07:05:10.813Z,16.02
2023-03-17T07:06:13.166Z,17.58
2023-03-17T07:07:16.265Z,15.70
2023-03-17T07:08:19.485Z,20.40
2023-03-17T07:09:22.194Z,20.90
2023-03-17T07:10:25.414Z,16.30
2023-03-17T07:11:29.206Z,15.40
2023-03-17T07:12:32.971Z,20.05
2023-03-17T07:13:37.236Z,15.75
2023-03-17T07:14:39.653Z,16.70
2023-03-17T07:15:44.381Z,18.30
2023-03-17T07:16:48.338Z,16.13
2023-03-17T07:17:50.910Z,16.17
2023-03-17T07:18:53.370Z,15.20
2023-03-17T07:19:56.094Z,18.67
2023-03-17T07:20:59.160Z,17.75
2023-03-17T07:22:01.712Z,19.70
2023-03-17T07:23:04.174Z,17.05
2023-03-17T07:24:06.728Z,14.88
2023-03-17T07:25:09.941Z,16.63
2023-03-17T07:26:12.808Z,14.73
2023-03-17T07:27:16.523Z,15.43
2023-03-17T07:28:19.293Z,16.40
2023-03-17T07:29:22.699Z,16.13
2023-03-17T07:30:25.078Z,14.05
2023-03-17T07:31:28.191Z,15.25
2023-03-17T07:32:31.943Z,18.02
2023-03-17T07:33:34.507Z,16.10
2023-03-17T07:34:37.374Z,22.73
2023-03-17T07:35:40.066Z,15.20
2023-03-17T07:36:42.568Z,18.17
2023-03-17T07:37:44.985Z,17.83
2023-03-17T07:38:47.308Z,13.10
2023-03-17T07:39:49.608Z,14.57
2023-03-17T07:40:53.021Z,16.92
2023-03-17T07:41:55.575Z,20.65
2023-03-17T07:42:57.887Z,24.52
2023-03-17T07:44:00.573Z,46.40
2023-03-17T07:45:04.970Z,41.00
2023-03-17T07:46:07.343Z,34.33
2023-03-17T07:47:11.390Z,39.45
2023-03-17T07:48:14.575Z,34.13
2023-03-17T07:49:20.947Z,39.38
2023-03-17T07:50:30.179Z,32.78
2023-03-17T07:51:33.187Z,26.83
2023-03-17T07:52:36.239Z,27.35
2023-03-17T07:53:38.602Z,26.35
2023-03-17T07:54:43.099Z,17.02
2023-03-17T07:55:45.645Z,11.45
2023-03-17T07:56:48.696Z,13.90
2023-03-17T07:57:51.332Z,9.13
2023-03-17T07:58:54.171Z,14.77
2023-03-17T07:59:56.628Z,14.48
2023-03-17T08:00:59.011Z,13.60
2023-03-17T08:02:01.647Z,11.95
2023-03-17T08:03:10.261Z,13.07
2023-03-17T08:04:13.258Z,15.90
2023-03-17T08:05:15.688Z,14.30
2023-03-17T08:06:18.021Z,16.27
2023-03-17T08:07:20.363Z,17.83
2023-03-17T08:08:23.810Z,17.58
2023-03-17T08:09:27.049Z,18.70
2023-03-17T08:10:30.327Z,16.70
2023-03-17T08:11:33.576Z,26.42
2023-03-17T08:12:36.598Z,21.98
2023-03-17T08:13:39.285Z,14.07
2023-03-17T08:14:41.670Z,20.60
2023-03-17T08:15:44.152Z,19.48
2023-03-17T08:16:46.563Z,16.13
2023-03-17T08:17:48.963Z,16.40
2023-03-17T08:18:51.331Z,16.63
2023-03-17T08:19:54.501Z,14.50
2023-03-17T08:20:57.005Z,17.80
2023-03-17T08:21:59.440Z,22.13
2023-03-17T08:23:02.693Z,18.83
2023-03-17T08:24:05.442Z,16.50
2023-03-17T08:25:09.610Z,21.45
2023-03-17T08:26:14.033Z,16.38
2023-03-17T08:27:18.228Z,17.95
2023-03-17T08:28:21.054Z,18.33
2023-03-17T08:29:23.632Z,14.50
2023-03-17T08:30:26.064Z,17.65
2023-03-17T08:31:28.825Z,17.52
2023-03-17T08:32:31.496Z,14.23
2023-03-17T08:33:34.795Z,15.20
2023-03-17T08:34:37.544Z,16.42
2023-03-17T08:35:41.619Z,21.88
2023-03-17T08:36:44.074Z,25.73
2023-03-17T08:37:47.596Z,14.93
2023-03-17T08:38:50.655Z,19.83
2023-03-17T08:39:53.047Z,19.77
2023-03-17T08:41:01.543Z,22.02
2023-03-17T08:42:04.939Z,16.23
2023-03-17T08:43:07.746Z,10.57
2023-03-17T08:44:10.712Z,14.95
2023-03-17T08:45:14.208Z,18.85
2023-03-17T08:46:22.627Z,15.48
2023-03-17T08:47:24.997Z,11.77
2023-03-17T08:48:28.627Z,9.10
2023-03-17T08:49:34.429Z,14.90
2023-03-17T08:50:37.265Z,9.63
2023-03-17T08:51:40.789Z,8.50
2023-03-17T08:52:43.642Z,15.23
2023-03-17T08:53:46.533Z,7.72
2023-03-17T08:54:48.882Z,8.85
2023-03-17T08:55:51.469Z,6.93
2023-03-17T08:56:53.865Z,7.90
2023-03-17T08:57:56.252Z,7.13
2023-03-17T08:58:58.707Z,8.45
2023-03-17T09:00:01.636Z,7.05
2023-03-17T09:01:04.904Z,10.52
2023-03-17T09:02:10.764Z,12.88
2023-03-17T09:03:13.787Z,9.65
2023-03-17T09:04:16.913Z,9.45
2023-03-17T09:05:20.596Z,27.45
2023-03-17T09:06:23.591Z,45.00
2023-03-17T09:07:25.957Z,125.75
2023-03-17T09:08:29.135Z,148.05
2023-03-17T09:09:33.697Z,249.98
2023-03-17T09:10:36.911Z,216.18
2023-03-17T09:11:40.079Z,365.58
2023-03-17T09:12:42.760Z,320.15
2023-03-17T09:13:46.480Z,199.20
2023-03-17T09:14:49.404Z,192.73
2023-03-17T09:15:52.272Z,182.75
2023-03-17T09:16:54.657Z,165.82
2023-03-17T09:17:57.975Z,123.00
2023-03-17T09:19:00.510Z,111.55
2023-03-17T09:20:03.565Z,91.32
2023-03-17T09:21:06.139Z,92.18
2023-03-17T09:22:11.759Z,70.72
2023-03-17T09:23:14.139Z,69.35
2023-03-17T09:24:17.933Z,69.88
2023-03-17T09:25:20.661Z,79.38
2023-03-17T09:26:25.074Z,91.22
2023-03-17T09:27:27.509Z,120.25
2023-03-17T09:28:29.924Z,106.28
2023-03-17T09:29:33.650Z,87.90
2023-03-17T09:30:36.737Z,99.72
2023-03-17T09:31:39.148Z,96.78
2023-03-17T09:32:42.390Z,106.28
2023-03-17T09:33:44.729Z,94.30
2023-03-17T09:34:48.163Z,72.40
2023-03-17T09:35:52.767Z,73.55
2023-03-17T09:36:55.081Z,74.30
2023-03-17T09:37:57.740Z,57.55
2023-03-17T09:39:00.489Z,52.67
2023-03-17T09:40:08.109Z,67.93
2023-03-17T09:41:44.120Z,49.97
2023-03-17T09:42:53.139Z,45.10
2023-03-17T09:44:23.254Z,49.67
2023-03-17T09:45:43.431Z,44.72
2023-03-17T09:46:49.109Z,47.78
2023-03-17T09:47:59.650Z,53.53
2023-03-17T09:49:07.316Z,58.22
2023-03-17T09:50:16.010Z,53.58
2023-03-17T09:51:19.734Z,26.33
2023-03-17T09:52:34.785Z,32.42
2023-03-17T09:53:50.670Z,43.45
2023-03-17T09:54:53.111Z,25.23
2023-03-17T09:55:58.829Z,26.67
2023-03-17T09:57:12.375Z,21.55
2023-03-17T09:58:14.786Z,23.33
2023-03-17T09:59:52.190Z,15.18
2023-03-17T10:00:54.520Z,19.52
2023-03-17T10:01:57.602Z,23.42
2023-03-17T10:03:01.438Z,26.10
2023-03-17T10:04:03.960Z,28.38
2023-03-17T10:05:21.147Z,34.53
2023-03-17T10:06:35.184Z,44.08
2023-03-17T10:07:56.768Z,35.30
2023-03-17T10:10:35.452Z,40.13
2023-03-17T10:11:54.401Z,30.98
2023-03-17T10:13:34.364Z,41.63
2023-03-17T10:14:41.991Z,37.50
2023-03-17T10:15:53.622Z,31.95
2023-03-17T10:17:09.199Z,30.95
2023-03-17T10:18:17.636Z,26.98
2023-03-17T10:19:32.496Z,25.77
2023-03-17T10:20:38.616Z,32.63
2023-03-17T10:21:55.554Z,13.45
2023-03-17T10:23:02.456Z,22.15
2023-03-17T10:24:06.074Z,19.10
2023-03-17T10:25:18.071Z,20.50
2023-03-17T10:26:27.066Z,25.83
2023-03-17T10:27:34.002Z,29.98
2023-03-17T10:28:38.774Z,26.42
2023-03-17T10:29:42.077Z,25.52
2023-03-17T10:30:44.802Z,22.75
2023-03-17T10:31:47.590Z,23.90
2023-03-17T10:32:52.402Z,19.00
2023-03-17T10:33:56.189Z,19.05
2023-03-17T10:34:58.505Z,15.15
2023-03-17T10:36:09.418Z,11.60
2023-03-17T10:37:17.476Z,11.45
2023-03-17T10:38:23.726Z,10.75
2023-03-17T10:39:26.980Z,12.68
2023-03-17T10:40:31.519Z,14.48
2023-03-17T10:41:41.817Z,14.23
2023-03-17T10:42:51.809Z,16.50
2023-03-17T10:43:54.209Z,21.30
2023-03-17T10:44:57.665Z,21.13
2023-03-17T10:46:03.255Z,20.85
2023-03-17T10:47:05.746Z,17.98
2023-03-17T10:48:09.900Z,15.23
2023-03-17T10:49:18.043Z,19.15
2023-03-17T10:50:32.023Z,15.13
2023-03-17T10:51:37.377Z,15.05
2023-03-17T10:52:40.846Z,15.10
2023-03-17T10:53:43.801Z,16.17
2023-03-17T10:54:49.113Z,18.50
2023-03-17T10:55:52.900Z,13.00
2023-03-17T10:57:06.901Z,11.60
2023-03-17T10:58:28.496Z,9.35
2023-03-17T10:59:38.378Z,14.68
2023-03-17T11:00:55.420Z,13.13
2023-03-17T11:02:00.671Z,12.43
2023-03-17T11:03:22.599Z,10.55
2023-03-17T11:04:35.633Z,9.80
2023-03-17T11:05:40.017Z,10.98
2023-03-17T11:06:51.426Z,6.70
2023-03-17T11:08:16.866Z,9.05
2023-03-17T11:09:21.428Z,7.45
2023-03-17T11:10:26.587Z,9.55
2023-03-17T11:11:41.677Z,7.90
2023-03-17T11:12:44.045Z,4.93
2023-03-17T11:13:47.016Z,6.38
2023-03-17T11:14:49.397Z,5.03
2023-03-17T11:16:07.586Z,11.80
2023-03-17T11:17:19.004Z,7.25
2023-03-17T11:20:07.827Z,5.93
2023-03-17T11:21:15.152Z,6.88
2023-03-17T11:22:26.948Z,11.90
2023-03-17T11:23:54.490Z,7.30
2023-03-17T11:25:15.291Z,9.85
2023-03-17T11:26:42.186Z,8.43
2023-03-17T11:28:16.308Z,5.30
2023-03-17T11:29:22.442Z,6.50
2023-03-17T11:30:35.468Z,7.43
2023-03-17T11:32:05.053Z,15.43
2023-03-17T11:33:37.133Z,5.93
2023-03-17T11:36:09.228Z,10.25
2023-03-17T11:37:37.085Z,10.77
2023-03-17T11:38:59.586Z,11.80
2023-03-17T11:40:32.451Z,9.80
2023-03-17T11:42:06.799Z,7.75
2023-03-17T11:43:22.371Z,11.82
2023-03-17T11:45:02.710Z,7.13
2023-03-17T11:46:15.883Z,5.88
2023-03-17T11:47:28.365Z,13.65
2023-03-17T11:49:04.233Z,11.75
2023-03-17T11:50:31.887Z,7.68
2023-03-17T11:52:14.042Z,10.10
2023-03-17T11:53:32.088Z,7.45
2023-03-17T11:54:54.187Z,6.47
2023-03-17T11:56:12.544Z,6.97
2023-03-17T11:57:40.339Z,5.88
2023-03-17T11:58:45.346Z,8.60
2023-03-17T11:59:56.249Z,8.25
2023-03-17T12:01:00.745Z,8.23
2023-03-17T12:02:07.932Z,7.03
2023-03-17T12:03:34.896Z,5.50
2023-03-17T12:04:55.596Z,7.32
2023-03-17T12:06:05.417Z,5.93
2023-03-17T12:07:37.750Z,2.80
2023-03-17T12:08:56.197Z,7.45
2023-03-17T12:10:19.279Z,3.75
2023-03-17T12:11:28.695Z,4.82
2023-03-17T12:12:38.508Z,5.45
2023-03-17T12:13:52.180Z,7.32
2023-03-17T12:14:57.822Z,7.10
2023-03-17T12:16:10.100Z,4.22
2023-03-17T12:17:26.512Z,2.55
2023-03-17T12:18:42.960Z,6.95
2023-03-17T12:20:16.373Z,3.88
2023-03-17T12:21:25.577Z,5.90
2023-03-17T12:22:32.855Z,8.23
2023-03-17T12:24:00.352Z,2.72
2023-03-17T12:25:02.742Z,5.68
2023-03-17T12:26:48.940Z,4.00
2023-03-17T12:28:01.217Z,8.25
2023-03-17T12:29:19.203Z,18.98
2023-03-17T12:30:38.818Z,16.25
2023-03-17T12:32:09.374Z,10.27
2023-03-17T12:34:01.167Z,8.23
2023-03-17T12:35:22.727Z,7.03
2023-03-17T12:36:25.780Z,7.15
2023-03-17T12:37:30.118Z,7.15
2023-03-17T12:38:42.546Z,6.95
2023-03-17T12:39:58.588Z,9.27
2023-03-17T12:41:28.700Z,8.00
2023-03-17T12:42:37.034Z,10.70
2023-03-17T12:44:03.396Z,8.00
2023-03-17T12:45:40.940Z,8.82
2023-03-17T12:47:14.387Z,3.53
2023-03-17T12:48:57.629Z,6.07
2023-03-17T12:50:17.994Z,7.72
2023-03-17T12:51:49.194Z,7.85
2023-03-17T12:53:13.972Z,13.23
2023-03-17T12:54:28.996Z,6.78
2023-03-17T12:55:34.101Z,3.65
2023-03-17T12:56:37.167Z,5.55
2023-03-17T12:57:45.870Z,4.55
2023-03-17T12:58:54.204Z,5.43
2023-03-17T13:00:15.243Z,4.85
2023-03-17T13:01:38.981Z,6.97
2023-03-17T13:02:45.156Z,4.05
2023-03-17T13:04:02.357Z,5.25
2023-03-17T13:05:13.028Z,4.95
2023-03-17T13:06:21.117Z,5.63
2023-03-17T13:07:36.711Z,3.33
2023-03-17T13:08:43.095Z,7.47
2023-03-17T13:09:54.514Z,7.47
2023-03-17T13:12:40.417Z,5.53
2023-03-17T13:13:55.931Z,6.32
2023-03-17T13:14:59.061Z,9.95
2023-03-17T13:16:05.501Z,9.70
2023-03-17T13:17:20.071Z,6.22
2023-03-17T13:18:43.916Z,8.50
2023-03-17T13:20:07.225Z,4.65
2023-03-17T13:21:16.333Z,5.53
2023-03-17T13:22:21.503Z,10.10
2023-03-17T13:23:47.993Z,5.57
2023-03-17T13:24:52.384Z,9.15
2023-03-17T13:25:54.808Z,8.88
2023-03-17T13:27:01.641Z,8.05
2023-03-17T13:28:12.970Z,11.88
2023-03-17T13:30:35.520Z,9.38
2023-03-17T13:31:39.645Z,9.20
2023-03-17T13:32:42.681Z,10.05
2023-03-17T13:33:52.197Z,5.28
2023-03-17T13:35:18.843Z,6.03
2023-03-17T13:36:58.846Z,9.13
2023-03-17T13:38:28.806Z,5.82
2023-03-17T13:39:46.642Z,6.20
2023-03-17T13:40:55.720Z,6.18
2023-03-17T13:42:18.956Z,6.95
2023-03-17T13:44:05.772Z,4.47
2023-03-17T13:45:14.058Z,6.55
2023-03-17T13:46:41.199Z,4.63
2023-03-17T13:47:45.772Z,6.90
2023-03-17T13:48:49.361Z,5.15
2023-03-17T13:49:57.105Z,4.30
2023-03-17T13:51:13.174Z,6.07
2023-03-17T13:52:32.623Z,7.00
2023-03-17T13:54:07.597Z,4.95
2023-03-17T13:55:20.332Z,4.80
2023-03-17T13:56:50.457Z,4.70
2023-03-17T13:58:17.044Z,3.97
2023-03-17T13:59:38.730Z,6.85
2023-03-17T14:00:55.151Z,4.82
2023-03-17T14:02:03.403Z,6.63
2023-03-17T14:03:23.037Z,2.50
2023-03-17T14:04:48.409Z,6.13
2023-03-17T14:05:52.804Z,5.57
2023-03-17T14:06:59.674Z,6.38
2023-03-17T14:08:05.649Z,2.70
2023-03-17T14:09:18.320Z,5.43
2023-03-17T14:10:24.737Z,5.90
2023-03-17T14:11:37.569Z,5.95
2023-03-17T14:12:45.188Z,5.70
2023-03-17T14:14:32.455Z,6.63
2023-03-17T14:15:47.992Z,6.90
2023-03-17T14:17:21.008Z,3.55
2023-03-17T14:18:32.378Z,3.03
2023-03-17T14:19:38.954Z,3.58
2023-03-17T14:20:53.484Z,8.43
2023-03-17T14:22:04.612Z,6.85
2023-03-17T14:23:09.128Z,4.32
2023-03-17T14:24:37.654Z,2.83
2023-03-17T14:25:40.535Z,3.83
2023-03-17T14:26:42.998Z,3.80
2023-03-17T14:27:48.465Z,5.13
2023-03-17T14:28:51.550Z,4.50
2023-03-17T14:29:54.021Z,4.13
2023-03-17T14:31:19.320Z,2.83
2023-03-17T14:32:24.210Z,7.32
2023-03-17T14:33:28.879Z,3.63
2023-03-17T14:34:32.307Z,7.38
2023-03-17T14:35:39.121Z,2.42
2023-03-17T14:36:42.330Z,4.10
2023-03-17T14:37:45.373Z,3.33
2023-03-17T14:38:50.899Z,4.30